Terminal Aerodrome Forecast
Issued by NWS Wilmington, OH

Current Version | Previous Version | Text Only | Print | Product List | Glossary Off
Versions: 1 2 3 4 5 6 7 8 9 10 11 12 13 14 15 16 17

597
FTUS41 KILN 270256 AAA
TAFDAY
TAF AMD
KDAY 270256Z 2703/2724 12005KT P6SM SCT045 OVC250
     FM270900 20004KT P6SM VCSH SCT040 OVC200
     FM271300 20011KT P6SM SHRA VCTS SCT040CB OVC080
     FM272200 22006KT P6SM SHRA OVC025=

USA.gov is the U.S. government's official web portal to all federal, state and local government web resources and services.